CheckWX is a tool to help pilots better visualize weather data.  It is not intended as a substitute for an official pre-flight weather briefing.

04:21:44 UTC

KPTV METAR
Porterville Municipal Airport
Porterville, California, USA
Current

26 mins ago

KPTV 100356Z AUTO 00000KT 8SM CLR 09/08 A3022 RMK AO2 SLP234 T00890078
Observed
Dec-10 @ 03:56 UTC
Visibility
8 SM
Flight Rules
VFR
Cloud Levels
  • Clear skies
Temperature
C / 48°F
Dewpoint
C / 46°F
Humidity
94%
Altimeter
30.22" Hg
Pressure
1023.42 hPa
Previous

1 hour ago

KPTV 100256Z AUTO 03003KT 10SM SCT009 BKN039 11/09 A3021 RMK AO2 SLP230 T01060089 52010
Observed
Dec-10 @ 02:56 UTC
Wind
  • 030° at 3 KTS
Visibility
10 SM
Flight Rules
VFR
Cloud Levels
  • Scattered at 900' AGL
  • Broken at 3,900' AGL
Temperature
11°C / 52°F
Dewpoint
C / 48°F
Humidity
88%
Altimeter
30.21" Hg
Pressure
1023.02 hPa
Previous

2 hours ago

KPTV 100156Z AUTO 04004KT 10SM OVC009 11/09 A3020 RMK AO2 SLP228 T01110094
Observed
Dec-10 @ 01:56 UTC
Wind
  • 040° at 4 KTS
Visibility
10 SM
Flight Rules
IFR
Cloud Levels
  • Overcast at 900' AGL
Temperature
11°C / 52°F
Dewpoint
C / 48°F
Humidity
88%
Altimeter
30.2" Hg
Pressure
1022.72 hPa